Race At The Ranch 13

Overall Finish List

April 06, 2013


Results By Split Second Productions

1 Mile

Place Name City Bib No Age Gender Age Group Chip Time Gun Time Chip Diff Pace
1 Dylan McGinnis 1036 10 M 1 10-10 6:09.00 6:25.00 0:15.66 6:09/M
2 Samuel Juneau 2866 11 M 1 11-11 6:17.00 6:35.00 0:17.76 6:17/M
3 Emilio Gama 485 8 M 1 8- 8 6:22.00 6:35.00 0:12.73 6:22/M
4 Myla Castillo 1180 8 F 1 8- 8 6:23.00 6:38.00 0:15.95 6:23/M
5 Jack Moore 2912 8 M 2 8- 8 6:31.00 6:47.00 0:16.04 6:31/M
6 Liam Lambert 1169 6 M 1 6- 6 6:41.00 6:55.00 0:13.49 6:41/M
7 Justin Cantu 1041 8 M 3 8- 8 6:43.00 6:57.00 0:13.29 6:43/M
8 Carson Diamond 1015 8 M 4 8- 8 6:44.00 6:44.00 6:44/M
9 Mark Cravens 403 12 M 1 12-99 6:46.00 7:00.00 0:13.56 6:46/M
10 Anna Hepp 1043 10 F 1 10-10 6:47.00 7:06.00 0:19.35 6:47/M
11 Matthew Cravens 404 8 M 5 8- 8 6:47.00 7:19.00 0:31.84 6:47/M
12 Douglas Aabbad 1048 8 M 6 8- 8 6:55.00 7:11.00 0:15.37 6:55/M
13 Mary Moore 2914 6 F 1 6- 6 6:57.00 7:14.00 0:17.34 6:57/M
14 Val Gonzales 1072 66 M 2 12-99 6:58.00 7:54.00 0:55.62 6:58/M
15 Amelia Pimienta 440 7 F 1 7- 7 7:01.00 7:14.00 0:12.81 7:01/M
16 Abygail Vlasi 1134 7 F 2 7- 7 7:03.00 7:16.00 0:13.41 7:03/M
17 Lucian Fellers 443 7 M 1 7- 7 7:16.00 7:31.00 0:15.07 7:16/M
18 Omar Gama 486 13 M 3 12-99 7:21.00 7:35.00 0:13.22 7:21/M
19 Angel Morales 436 38 M 4 12-99 7:24.00 7:39.00 0:14.68 7:24/M
20 Jack Turner 439 9 M 1 9- 9 7:24.00 7:40.00 0:15.99 7:24/M
21 Robert Turner 438 50 M 5 12-99 7:24.00 7:40.00 0:16.53 7:24/M
22 Diego Morales 437 6 M 2 6- 6 7:26.00 7:39.00 0:13.22 7:26/M
23 Donovan Castillo 1181 11 M 2 11-11 7:36.00 7:51.00 0:15.44 7:36/M
24 Laura Castillo 1182 34 F 1 12-99 7:38.00 7:54.00 0:16.75 7:38/M
25 Duane Collins 1125 46 M 6 12-99 7:41.00 7:56.00 0:15.04 7:41/M
26 Riley Collins 1127 7 M 2 7- 7 7:42.00 7:55.00 0:12.99 7:42/M
27 Brooklyn Burk 1057 9 F 1 9- 9 8:10.00 8:33.00 0:22.60 8:10/M
28 Audrey Pantano 1060 6 F 2 6- 6 8:11.00 8:26.00 0:14.25 8:11/M
29 Cooper Phipps 1167 8 M 7 8- 8 8:12.00 8:33.00 0:20.79 8:12/M
30 Caitlin Carden San Antonio TX 2900 9 F 2 9- 9 8:13.00 8:26.00 0:13.36 8:13/M
31 Travis Collins 1128 5 M 1 3- 5 8:13.00 8:38:38.00 8:30:25.00 8:13/M
32 Cadence Phillips 1157 6 F 3 6- 6 8:15.00 8:30.00 0:14.56 8:15/M
33 Kory Phipps 1164 35 F 2 12-99 8:15.00 8:36.00 0:20.76 8:15/M
34 Diego Mendoza 470 4 M 2 3- 5 8:17.00 8:31.00 0:14.81 8:17/M
35 Melinda Pantano 1059 31 F 3 12-99 8:17.00 8:32.00 0:15.08 8:17/M
36 Isabella Benfield 2913 6 F 4 6- 6 8:19.00 8:36.00 0:16.74 8:19/M
37 Joanna Collins 1126 39 F 4 12-99 8:23.00 8:38.00 0:15.20 8:23/M
38 Emily Aabbad 1047 10 F 2 10-10 8:23.00 8:42.00 0:18.67 8:23/M
39 Kate Pollom 1140 6 F 5 6- 6 8:24.00 8:47.00 0:23.13 8:24/M
40 Kenzie Vanhorn San Antonio TX 2901 6 F 6 6- 6 8:25.00 8:38.00 0:12.74 8:25/M
41 Andrew Kingdon 1010 7 M 3 7- 7 8:28.00 8:42.00 0:13.69 8:28/M
42 Ryan Garcia 1122 9 M 2 9- 9 8:28.00 9:11.00 0:42.73 8:28/M
43 Patrick Hall 1061 28 M 7 12-99 8:29.00 8:45.00 0:15.58 8:29/M
44 Alex Kingdon 1007 5 M 3 3- 5 8:30.00 8:42.00 0:12.55 8:30/M
45 Caroline Pollom 1141 1 F 1 0- 2 8:38.00 9:01.00 0:22.99 8:38/M
46 Shea Pollom 1144 38 F 5 12-99 8:38.00 9:02.00 0:23.84 8:38/M
47 Meredith Garrett 1193 4 F 1 3- 5 8:39.00 8:58.00 0:19.11 8:39/M
48 Alexa Morales 434 8 F 2 8- 8 8:41.00 8:55.00 0:14.06 8:41/M
49 Tana Phillips 1153 39 F 6 12-99 8:45.00 9:00.00 0:15.03 8:45/M
50 Madison Phillips 1155 6 F 7 6- 6 8:45.00 9:00.00 0:15.03 8:45/M
51 Sydney Nickleberry 1065 5 F 2 3- 5 8:46.00 9:05.00 0:19.00 8:46/M
52 Casen Jacobson 408 6 M 3 6- 6 8:49.00 9:29.00 0:39.44 8:49/M
53 Brelyn Burk 1054 7 F 3 7- 7 8:55.00 9:17.00 0:22.28 8:55/M
54 Jolene Burk 1053 49 F 7 12-99 8:55.00 9:17.00 0:22.74 8:55/M
55 Caden Jacobson 409 6 M 4 6- 6 9:03.00 9:43.00 0:39.78 9:03/M
56 Joseph Charles Jackson 2864 30 M 8 12-99 9:07.00 9:20.00 0:13.33 9:07/M
57 Taylor Phillips 1156 6 F 8 6- 6 9:07.00 9:21.00 0:13.82 9:07/M
58 Marshall Tidwell 2888 50 M 9 12-99 9:10.00 9:35.00 0:24.45 9:10/M
59 Jessica Sanco 1028 10 F 3 10-10 9:13.00 9:31.00 0:18.52 9:13/M
60 Evan Wilson 413 6 M 5 6- 6 9:15.00 9:37.00 0:22.16 9:15/M
61 Bradley Wilson 412 37 M 10 12-99 9:17.00 9:39.00 0:21.89 9:17/M
62 Jake Phipps 1165 6 M 6 6- 6 9:35.00 9:56.00 0:20.53 9:35/M
63 Addison Garcia 1124 9 F 3 9- 9 9:41.00 10:23.00 0:42.78 9:41/M
64 Maria Coronel 1045 40 M 11 12-99 9:42.00 9:57.00 0:15.75 9:42/M
65 Eric Phipps 1166 50 M 12 12-99 9:44.00 10:05.00 0:21.26 9:44/M
66 Lindsay Krupczak 1145 37 F 8 12-99 9:52.00 10:12.00 0:19.86 9:52/M
67 Trinity Juneau 2867 12 F 9 12-99 9:53.00 10:11.00 0:18.58 9:53/M
68 Macy Weldon 2891 12 F 10 12-99 9:54.00 10:13.00 0:19.13 9:54/M
69 Claire Najarro 2879 34 F 11 12-99 10:10.00 10:27.00 0:17.18 10:10/M
70 Roberto Hernandez 2861 44 M 13 12-99 10:10.00 10:27.00 0:17.38 10:10/M
71 Kennedi Diamond 1012 5 F 3 3- 5 10:12.00 10:31.00 0:19.08 10:12/M
72 Jason Diamond 1013 36 M 14 12-99 10:12.00 10:32.00 0:19.48 10:12/M
73 Ava Smith 2886 8 F 3 8- 8 10:13.00 10:27.00 0:14.07 10:13/M
74 Ana Morales 435 36 F 12 12-99 10:13.00 10:27.00 0:14.20 10:13/M
75 Cade Diamond 1014 3 M 4 3- 5 10:13.00 10:32.00 0:19.38 10:13/M
76 Avery Kingdon 1009 4 F 4 3- 5 10:14.00 10:33.00 0:18.23 10:14/M
77 Will Kingdon 1008 44 M 15 12-99 10:15.00 10:33.00 0:18.56 10:15/M
78 Madelyn Bartek 1018 8 F 4 8- 8 10:35.00 10:55.00 0:19.47 10:35/M
79 Grayson Bartek 1019 4 F 5 3- 5 10:35.00 10:57.00 0:22.18 10:35/M
80 Kamryn Thresher 490 9 F 4 9- 9 10:56.00 11:10.00 0:14.09 10:56/M
81 Gabriel Pinzon 1070 5 M 5 3- 5 11:09.00 11:32.00 0:23.61 11:09/M
82 Allison White 479 7 F 4 7- 7 11:15.00 11:28.00 0:13.81 11:15/M
83 Matt Jackson 467 41 M 16 12-99 11:19.00 11:40.00 0:20.87 11:19/M
84 Karlyn Jackson 468 7 F 5 7- 7 11:19.00 11:40.00 0:20.61 11:19/M
85 Jocelyn Fellers 444 4 F 6 3- 5 11:21.00 11:47.00 0:26.04 11:21/M
86 Gretchen White 478 41 F 13 12-99 11:23.00 11:41.00 0:18.26 11:23/M